Decoded Metar for KOGB (ORANGEBURG in SC, USA) (IATA:OGB) | Meteo·Mobile Aviation Weather
aviador You're here:

KOGB Decoded Metar

ORANGEBURG in SC, USA
Report Time2018-11-19 08:53:00
UTC Time2018-11-19 09:58:11
Flight Rules vfr VFR
Wind360° at 04 kt
W.Decomp.*RWY 35: 3.8 kt HW 1.2 kt RCW
RWY 05: 2.9 kt HW 2.7 kt LCW
Visibility9999 m
Phenomena:N/A
Clouds:N/A
Expected CloudBase > 800 ft AGL from Temp-Dew spread
CeilingNone
Temp13°C (ISA -2)
Dew Point11°C (88% RH)
AAT11.9°C
QNH1021 hPa
Density Alt-92 ft
Elevation194 ft
Report Wrong Elevation
Raw Report
METAR KOGB 190853Z AUTO 36004KT 10SM CLR 13/11 A3014 RMK AO2 SLP205
T01280111 58007=

Extra information for KOGB:More info

Metar Taf Metar & Taf Last 4 Metars F.Rules Stats Wind Profile Meteogram Temp Stats Airport Information Weather charts Add Link Nearby VenuesMetar ALERT Operation Metar Decoded Social comments

AIRNAV info for KOGB